Time;durP1;ratioP1;P1;durP2;ratioP2;P2;SDS_P1;SDS_P2;PMS_P1;PMS_P2;Temp;Humidity;BMP_temperature;BMP_pressure;BME280_temperature;BME280_humidity;BME280_pressure;Samples;Min_cycle;Max_cycle;Signal;HPM_P1;HPM_P2
2022/06/05 00:00:32;;;;;;;17.85;9.43;;;10.90;99.90;;;;;;5033183;28;20045;-87
2022/06/05 00:03:21;;;;;;;17.05;8.82;;;11.00;99.90;;;;;;5016376;28;20128;-87
2022/06/05 00:06:21;;;;;;;16.35;8.52;;;11.30;99.90;;;;;;5032442;28;20037;-87
2022/06/05 00:08:58;;;;;;;18.42;8.73;;;10.90;99.90;;;;;;5033108;28;20485;-87
2022/06/05 00:11:24;;;;;;;13.65;8.25;;;11.60;99.90;;;;;;5016860;28;20088;-87
2022/06/05 00:13:52;;;;;;;13.75;8.23;;;11.40;99.90;;;;;;5016600;28;20453;-87
2022/06/05 00:16:25;;;;;;;14.68;8.68;;;11.50;99.90;;;;;;5016321;28;20072;-86
2022/06/05 00:18:51;;;;;;;16.20;8.70;;;10.90;99.90;;;;;;5016443;28;20033;-87
2022/06/05 00:21:16;;;;;;;16.60;8.38;;;10.80;99.90;;;;;;5016314;28;20053;-87
2022/06/05 00:23:46;;;;;;;16.10;8.68;;;10.90;99.90;;;;;;5032414;28;20469;-86
2022/06/05 00:26:27;;;;;;;18.73;8.35;;;10.80;99.90;;;;;;5032842;28;20127;-87
2022/06/05 00:29:27;;;;;;;14.45;7.85;;;10.90;99.90;;;;;;5016148;28;20056;-87
2022/06/05 00:32:27;;;;;;;18.98;8.70;;;10.80;99.90;;;;;;5016585;28;20041;-87
2022/06/05 00:34:53;;;;;;;16.42;7.97;;;10.80;99.90;;;;;;5023154;28;20041;-87
2022/06/05 00:37:53;;;;;;;14.20;7.80;;;10.80;99.90;;;;;;5017978;28;20068;-86
2022/06/05 00:40:27;;;;;;;13.85;8.63;;;10.80;99.90;;;;;;4976378;28;20050;-87
2022/06/05 00:42:53;;;;;;;19.30;8.32;;;10.80;99.90;;;;;;4960243;28;20074;-87
2022/06/05 00:45:19;;;;;;;17.00;8.18;;;10.80;99.90;;;;;;4984247;28;20050;-87
2022/06/05 00:47:46;;;;;;;16.58;8.93;;;10.80;99.90;;;;;;4980319;28;20061;-87
2022/06/05 00:50:24;;;;;;;14.88;8.60;;;10.80;99.90;;;;;;4976044;28;20053;-87
2022/06/05 00:52:58;;;;;;;15.18;8.48;;;10.80;99.90;;;;;;4975789;28;20078;-87
2022/06/05 00:55:27;;;;;;;17.50;9.32;;;10.80;99.90;;;;;;4975933;28;20094;-86
2022/06/05 00:57:55;;;;;;;15.88;8.13;;;11.00;99.90;;;;;;4976008;28;20056;-87
2022/06/05 01:00:30;;;;;;;15.00;8.65;;;10.80;99.90;;;;;;4975859;28;20050;-87
2022/06/05 01:02:58;;;;;;;14.55;8.10;;;10.80;99.90;;;;;;4975996;28;20045;-86
2022/06/05 01:05:25;;;;;;;15.07;8.63;;;10.90;99.90;;;;;;4976191;28;20580;-87
2022/06/05 01:07:57;;;;;;;15.23;8.13;;;11.20;99.90;;;;;;4983603;28;20042;-87
2022/06/05 01:10:29;;;;;;;17.17;8.50;;;10.80;99.90;;;;;;4979143;28;20554;-87
2022/06/05 01:12:59;;;;;;;15.70;8.57;;;10.80;99.90;;;;;;4976836;28;20453;-86
2022/06/05 01:15:40;;;;;;;16.45;8.75;;;10.80;99.90;;;;;;4975795;28;20061;-87
2022/06/05 01:18:11;;;;;;;14.02;8.65;;;10.80;99.90;;;;;;5012662;28;20069;-88
2022/06/05 01:20:37;;;;;;;15.13;8.27;;;10.80;99.90;;;;;;5019543;28;20045;-87
2022/06/05 01:23:51;;;;;;;16.63;8.68;;;10.80;99.90;;;;;;5036240;28;20096;-87
2022/06/05 01:26:37;;;;;;;19.05;8.55;;;10.70;99.90;;;;;;4979627;28;20137;-87
2022/06/05 01:29:05;;;;;;;;;;;10.80;99.90;;;;;;4980200;28;20050;-87
2022/06/05 01:31:52;;;;;;;19.67;8.52;;;11.00;99.90;;;;;;4979456;28;19921;-87
2022/06/05 01:34:32;;;;;;;16.83;8.95;;;10.80;99.90;;;;;;4979226;28;20124;-87
2022/06/05 01:37:06;;;;;;;14.93;7.93;;;10.90;99.90;;;;;;4979200;28;20089;-85
2022/06/05 01:39:37;;;;;;;16.10;8.50;;;10.80;99.90;;;;;;4979347;28;20109;-87
2022/06/05 01:42:30;;;;;;;16.23;8.98;;;10.80;99.90;;;;;;4979625;28;20449;-87
2022/06/05 01:45:00;;;;;;;17.70;9.43;;;10.80;99.90;;;;;;4979548;28;20058;-87
2022/06/05 01:47:32;;;;;;;18.23;8.80;;;11.20;99.90;;;;;;4979226;28;20054;-86
2022/06/05 01:50:36;;;;;;;17.08;8.85;;;10.80;99.90;;;;;;4979065;28;20117;-87
2022/06/05 01:53:41;;;;;;;17.17;8.23;;;11.50;99.90;;;;;;4899150;29;20045;-87
2022/06/05 01:56:26;;;;;;;17.77;8.80;;;10.80;99.90;;;;;;4899547;29;20437;-86
2022/06/05 01:58:56;;;;;;;19.17;9.13;;;10.80;99.90;;;;;;4868575;29;20056;-87
2022/06/05 02:01:28;;;;;;;17.25;9.02;;;11.40;99.90;;;;;;4883737;29;20045;-87
2022/06/05 02:04:32;;;;;;;16.70;8.73;;;10.90;99.90;;;;;;4940287;29;20137;-85
2022/06/05 02:07:04;;;;;;;18.80;9.27;;;10.80;99.90;;;;;;4883395;29;20496;-86
2022/06/05 02:09:55;;;;;;;19.35;9.75;;;11.00;99.90;;;;;;4883366;29;20044;-87
2022/06/05 02:12:21;;;;;;;22.23;9.95;;;11.60;99.90;;;;;;4824822;29;20061;-87
2022/06/05 02:14:47;;;;;;;15.38;8.73;;;10.80;99.90;;;;;;4809850;29;20055;-86
2022/06/05 02:17:13;;;;;;;20.20;9.40;;;10.90;99.90;;;;;;4809725;29;20069;-87
2022/06/05 02:19:40;;;;;;;20.30;10.00;;;11.50;99.90;;;;;;4810004;29;20395;-86
2022/06/05 02:22:18;;;;;;;17.20;9.20;;;11.20;99.90;;;;;;4825329;29;20050;-87
2022/06/05 02:24:44;;;;;;;17.13;9.65;;;10.80;99.90;;;;;;4876345;29;20378;-86
2022/06/05 02:27:10;;;;;;;18.83;9.45;;;10.80;99.90;;;;;;4883233;29;20053;-87
2022/06/05 02:29:36;;;;;;;20.42;9.50;;;10.90;99.90;;;;;;4882752;29;20489;-87
2022/06/05 02:32:14;;;;;;;20.92;9.38;;;10.80;99.90;;;;;;4867711;29;20063;-87
2022/06/05 02:34:50;;;;;;;22.45;9.45;;;10.80;99.90;;;;;;4898930;29;20044;-87
2022/06/05 02:37:54;;;;;;;21.05;9.07;;;10.80;99.90;;;;;;4901638;29;20538;-86
2022/06/05 02:40:30;;;;;;;18.27;9.60;;;10.80;99.90;;;;;;4923719;29;20105;-87
2022/06/05 02:43:14;;;;;;;21.50;10.10;;;11.10;99.90;;;;;;4939746;29;20054;-87
2022/06/05 02:45:51;;;;;;;20.20;9.15;;;11.10;99.90;;;;;;4939768;29;20424;-87
2022/06/05 02:48:38;;;;;;;35.83;10.32;;;10.90;99.90;;;;;;4930575;28;20128;-87
2022/06/05 02:51:19;;;;;;;22.52;9.82;;;10.80;99.90;;;;;;5034214;28;20120;-87
2022/06/05 02:53:54;;;;;;;20.52;10.52;;;10.80;99.90;;;;;;5034275;28;20056;-87
2022/06/05 02:56:21;;;;;;;22.90;10.50;;;10.80;99.90;;;;;;5018153;28;20152;-87
2022/06/05 02:58:49;;;;;;;21.73;9.88;;;11.00;99.90;;;;;;5017436;28;20054;-87
2022/06/05 03:04:00;;;;;;;20.80;10.43;;;10.90;99.90;;;;;;5041920;28;20075;-87
2022/06/05 03:06:29;;;;;;;26.50;10.40;;;10.90;99.90;;;;;;5037762;28;20056;-87
2022/06/05 03:08:55;;;;;;;25.00;11.73;;;11.40;99.90;;;;;;5034057;28;20503;-86
2022/06/05 03:11:21;;;;;;;23.83;10.05;;;10.90;99.90;;;;;;5017824;28;20041;-87
2022/06/05 03:13:47;;;;;;;23.60;10.43;;;11.00;99.90;;;;;;5034207;28;20481;-87
2022/06/05 03:16:13;;;;;;;20.38;9.90;;;11.00;99.90;;;;;;5034265;28;20440;-87
2022/06/05 03:18:39;;;;;;;19.17;10.10;;;10.90;99.90;;;;;;5017760;28;20073;-87
2022/06/05 03:21:04;;;;;;;28.98;11.05;;;11.20;99.90;;;;;;5017611;28;20138;-87
2022/06/05 03:23:31;;;;;;;24.23;10.85;;;10.90;99.90;;;;;;5017459;28;20048;-87
2022/06/05 03:25:58;;;;;;;21.30;10.20;;;11.00;99.90;;;;;;5017331;28;20048;-87
2022/06/05 03:28:24;;;;;;;22.23;9.93;;;11.20;99.90;;;;;;5017226;28;20038;-87
2022/06/05 03:30:50;;;;;;;21.13;9.85;;;11.30;99.90;;;;;;5017001;28;20041;-87
2022/06/05 03:33:17;;;;;;;20.52;10.52;;;11.10;99.90;;;;;;5017011;28;20068;-87
2022/06/05 03:35:44;;;;;;;23.10;11.07;;;11.20;99.90;;;;;;5017024;28;20075;-87
2022/06/05 03:38:12;;;;;;;21.20;10.18;;;11.00;99.90;;;;;;5017092;28;20045;-87
2022/06/05 03:40:43;;;;;;;23.23;10.18;;;11.10;99.90;;;;;;5016303;28;20095;-87
2022/06/05 03:43:09;;;;;;;21.63;10.27;;;11.10;99.90;;;;;;5016805;28;20132;-87
2022/06/05 03:45:35;;;;;;;21.75;10.23;;;11.50;99.90;;;;;;5017127;28;20056;-87
2022/06/05 03:48:01;;;;;;;23.20;10.13;;;11.40;99.90;;;;;;5033173;28;20481;-86
2022/06/05 03:50:26;;;;;;;22.20;10.70;;;11.10;99.90;;;;;;5018450;28;20110;-88
2022/06/05 03:52:52;;;;;;;19.20;9.27;;;11.10;99.90;;;;;;5034741;28;20380;-87
2022/06/05 03:55:21;;;;;;;18.75;9.43;;;11.30;99.90;;;;;;5033268;28;20080;-87
2022/06/05 03:57:47;;;;;;;23.13;10.05;;;11.10;99.90;;;;;;5016582;28;20041;-86
2022/06/05 04:00:14;;;;;;;19.10;10.02;;;11.10;99.90;;;;;;5033013;28;20037;-87
2022/06/05 04:02:40;;;;;;;21.30;10.50;;;11.20;99.90;;;;;;5032690;28;20041;-87
2022/06/05 04:05:09;;;;;;;21.88;9.82;;;11.30;99.90;;;;;;5032938;28;20046;-87
2022/06/05 04:07:34;;;;;;;25.02;9.60;;;11.20;99.90;;;;;;5016611;28;20053;-87
2022/06/05 04:10:00;;;;;;;21.73;10.07;;;11.30;99.90;;;;;;5032911;28;20049;-87
2022/06/05 04:12:26;;;;;;;21.05;10.52;;;11.50;99.90;;;;;;5033007;28;20167;-87
2022/06/05 04:14:52;;;;;;;18.65;10.25;;;11.40;99.90;;;;;;5016362;28;20138;-87
2022/06/05 04:17:17;;;;;;;22.70;10.13;;;11.40;99.90;;;;;;5033045;28;20038;-87
2022/06/05 04:19:43;;;;;;;23.92;10.57;;;11.80;99.90;;;;;;5017292;28;20037;-87
2022/06/05 04:22:15;;;;;;;21.40;9.75;;;12.10;99.90;;;;;;5034065;28;20037;-86
2022/06/05 04:24:41;;;;;;;21.50;9.50;;;12.10;99.90;;;;;;5016390;28;20084;-86
2022/06/05 04:27:06;;;;;;;20.17;10.40;;;11.60;99.90;;;;;;5016664;28;20380;-87
2022/06/05 04:29:33;;;;;;;22.05;9.63;;;11.60;99.90;;;;;;5016083;28;20041;-86
2022/06/05 04:31:59;;;;;;;21.10;9.95;;;11.60;99.90;;;;;;5016142;28;20136;-87
2022/06/05 04:34:24;;;;;;;22.40;9.95;;;12.10;99.90;;;;;;5032888;28;20481;-87
2022/06/05 04:36:50;;;;;;;18.63;9.75;;;11.80;99.90;;;;;;5016359;28;20049;-86
2022/06/05 04:39:16;;;;;;;20.80;10.70;;;11.70;99.90;;;;;;5016309;28;20448;-86
2022/06/05 04:41:42;;;;;;;19.88;9.80;;;11.80;99.90;;;;;;5015800;28;20045;-87
2022/06/05 04:44:15;;;;;;;19.88;9.95;;;11.90;99.90;;;;;;5032528;28;20441;-86
2022/06/05 04:46:41;;;;;;;18.67;9.43;;;11.90;99.90;;;;;;5032665;28;20037;-87
2022/06/05 04:49:07;;;;;;;18.48;9.63;;;11.90;99.90;;;;;;5016615;28;20045;-86
2022/06/05 04:51:34;;;;;;;20.55;10.98;;;12.40;99.90;;;;;;5017923;28;20041;-87
2022/06/05 04:54:01;;;;;;;20.05;9.63;;;12.10;99.90;;;;;;5039024;28;20041;-85
2022/06/05 04:56:28;;;;;;;18.67;10.43;;;12.10;99.90;;;;;;5022438;28;20052;-87
2022/06/05 04:58:54;;;;;;;22.55;10.00;;;12.70;99.90;;;;;;5038683;28;20089;-87
2022/06/05 05:01:26;;;;;;;17.40;9.43;;;12.30;99.90;;;;;;5022368;28;20103;-87
2022/06/05 05:03:55;;;;;;;18.23;9.27;;;12.80;99.90;;;;;;5038856;28;20045;-87
2022/06/05 05:06:21;;;;;;;18.85;9.80;;;12.40;99.90;;;;;;5022383;28;20049;-87
2022/06/05 05:08:47;;;;;;;19.30;9.88;;;12.60;99.90;;;;;;5038714;28;20045;-87
2022/06/05 05:11:13;;;;;;;20.45;9.38;;;12.90;99.90;;;;;;5038828;28;20076;-85
2022/06/05 05:13:39;;;;;;;17.02;9.77;;;12.50;99.90;;;;;;5022417;28;20049;-87
2022/06/05 05:16:05;;;;;;;17.27;9.55;;;13.00;99.90;;;;;;5022630;28;20409;-87
2022/06/05 05:18:30;;;;;;;17.73;9.20;;;12.60;99.90;;;;;;5040261;28;20045;-87
2022/06/05 05:21:07;;;;;;;16.90;9.45;;;12.60;99.90;;;;;;5025075;28;20042;-87
2022/06/05 05:23:36;;;;;;;15.40;9.57;;;12.70;99.90;;;;;;5023844;28;20049;-87
2022/06/05 05:26:16;;;;;;;17.63;8.98;;;12.70;99.90;;;;;;5022716;28;20204;-86
2022/06/05 05:28:43;;;;;;;18.42;9.50;;;12.80;99.90;;;;;;5022468;28;20537;-87
2022/06/05 05:31:17;;;;;;;14.70;8.57;;;12.90;99.90;;;;;;5038575;28;20049;-86
2022/06/05 05:33:43;;;;;;;16.95;9.55;;;13.50;99.90;;;;;;5022343;28;20489;-88
2022/06/05 05:36:09;;;;;;;19.40;9.30;;;13.00;99.90;;;;;;5038746;28;20045;-88
2022/06/05 05:38:37;;;;;;;16.63;9.27;;;13.00;99.90;;;;;;5021989;28;20042;-87
2022/06/05 05:43:47;;;;;;;17.42;9.57;;;13.10;99.90;;;;;;5038526;28;20050;-88
2022/06/05 05:46:15;;;;;;;16.50;9.38;;;13.20;99.90;;;;;;5022073;28;20045;-88
2022/06/05 05:48:41;;;;;;;16.45;8.95;;;13.30;99.90;;;;;;5022177;28;20063;-86
2022/06/05 05:51:14;;;;;;;16.90;8.98;;;13.30;99.90;;;;;;5022088;28;20496;-88
2022/06/05 05:53:42;;;;;;;16.50;9.10;;;13.40;99.90;;;;;;5022059;28;20049;-88
2022/06/05 05:56:13;;;;;;;16.65;8.98;;;13.70;99.90;;;;;;5038630;28;20048;-87
2022/06/05 05:58:40;;;;;;;16.63;8.98;;;13.60;99.90;;;;;;5038125;28;20046;-88
2022/06/05 06:01:08;;;;;;;16.58;9.68;;;14.20;99.90;;;;;;5038741;28;20057;-88
2022/06/05 06:03:35;;;;;;;15.80;8.85;;;13.70;99.90;;;;;;5020328;28;20045;-87
2022/06/05 06:06:02;;;;;;;19.58;8.73;;;13.80;99.90;;;;;;5020139;28;20132;-88
2022/06/05 06:08:29;;;;;;;15.85;9.18;;;13.90;99.90;;;;;;5018694;28;20128;-88
2022/06/05 06:10:54;;;;;;;14.27;8.88;;;14.00;99.90;;;;;;5018729;28;20046;-88
2022/06/05 06:13:20;;;;;;;15.05;9.35;;;14.10;99.90;;;;;;5018823;28;20499;-88
2022/06/05 06:15:47;;;;;;;13.18;8.10;;;14.10;99.90;;;;;;5018661;28;20045;-88
2022/06/05 06:18:12;;;;;;;18.88;9.00;;;14.20;99.90;;;;;;5035221;28;20052;-87
2022/06/05 06:20:38;;;;;;;16.65;8.82;;;14.20;99.90;;;;;;5018644;28;20465;-88
2022/06/05 06:23:06;;;;;;;13.38;7.80;;;14.30;99.90;;;;;;5018226;28;20049;-87
2022/06/05 06:25:32;;;;;;;14.43;8.85;;;14.40;99.90;;;;;;5018220;28;20041;-86
2022/06/05 06:27:58;;;;;;;15.13;8.15;;;14.40;99.90;;;;;;5034989;28;20103;-87
2022/06/05 06:30:23;;;;;;;16.05;9.50;;;14.50;99.90;;;;;;5018365;28;20395;-87
2022/06/05 06:32:49;;;;;;;14.35;7.75;;;14.80;99.90;;;;;;5018259;28;20045;-88
2022/06/05 06:35:15;;;;;;;12.18;8.40;;;14.60;99.90;;;;;;5018616;28;20132;-89
2022/06/05 06:37:46;;;;;;;13.25;8.15;;;14.60;99.90;;;;;;5018202;28;20077;-87
2022/06/05 06:40:12;;;;;;;13.70;8.27;;;14.70;99.90;;;;;;5018261;28;20047;-88
2022/06/05 06:42:37;;;;;;;16.90;8.93;;;14.90;99.90;;;;;;5018240;28;20124;-88
2022/06/05 06:45:03;;;;;;;12.95;8.60;;;14.90;99.90;;;;;;5034689;28;20451;-88
2022/06/05 06:47:29;;;;;;;14.10;8.73;;;15.10;99.90;;;;;;5018402;28;20049;-88
2022/06/05 06:49:54;;;;;;;15.65;8.25;;;15.20;99.90;;;;;;5018055;28;20057;-88
2022/06/05 06:52:20;;;;;;;13.98;8.02;;;15.30;99.90;;;;;;5017967;28;20048;-88
2022/06/05 06:54:48;;;;;;;13.27;8.93;;;15.30;99.90;;;;;;5018519;28;20192;-88
2022/06/05 06:57:14;;;;;;;13.75;8.23;;;15.50;99.90;;;;;;5018168;28;20085;-88
2022/06/05 06:59:40;;;;;;;13.93;8.00;;;15.60;99.90;;;;;;5017866;28;20080;-87
2022/06/05 07:02:06;;;;;;;14.18;8.02;;;15.70;99.90;;;;;;5034623;28;20053;-89
2022/06/05 07:04:31;;;;;;;11.63;8.18;;;15.80;99.90;;;;;;5039982;28;20081;-88
2022/06/05 07:06:57;;;;;;;12.75;7.97;;;16.00;99.90;;;;;;5018115;28;20045;-89
2022/06/05 07:09:32;;;;;;;12.60;7.60;;;16.20;99.90;;;;;;5017774;28;20085;-89
2022/06/05 07:11:58;;;;;;;11.95;7.70;;;16.40;99.90;;;;;;5017675;28;20044;-89
2022/06/05 07:14:26;;;;;;;12.20;7.30;;;16.60;99.90;;;;;;5017589;28;20049;-88
2022/06/05 07:16:53;;;;;;;13.60;7.90;;;16.80;99.90;;;;;;5017473;28;20052;-90
2022/06/05 07:19:19;;;;;;;11.52;7.35;;;16.90;99.90;;;;;;5017915;28;20095;-88
2022/06/05 07:21:45;;;;;;;12.90;7.90;;;17.20;99.90;;;;;;5041451;23;20053;-89
2022/06/05 07:24:11;;;;;;;12.65;7.80;;;17.30;99.90;;;;;;5033796;28;20056;-87
2022/06/05 07:26:37;;;;;;;11.02;7.38;;;17.50;99.90;;;;;;5017604;28;20397;-89
2022/06/05 07:29:02;;;;;;;12.18;6.78;;;17.60;99.90;;;;;;5017418;28;20389;-89
2022/06/05 07:31:29;;;;;;;9.25;6.90;;;17.50;99.90;;;;;;5017140;28;20057;-88
2022/06/05 07:33:56;;;;;;;12.23;6.90;;;17.60;99.90;;;;;;5033720;28;20042;-88
2022/06/05 07:36:24;;;;;;;11.43;7.10;;;17.60;99.90;;;;;;5021939;28;20049;-89
2022/06/05 07:38:50;;;;;;;11.13;7.05;;;17.50;99.90;;;;;;5039295;28;20120;-87
2022/06/05 07:41:36;;;;;;;9.13;6.13;;;17.50;99.90;;;;;;5034967;28;20045;-88
2022/06/05 07:44:02;;;;;;;10.15;6.93;;;17.50;99.90;;;;;;5017262;28;20052;-87
2022/06/05 07:46:30;;;;;;;9.25;6.50;;;17.60;99.90;;;;;;5016517;28;20401;-88
2022/06/05 07:48:55;;;;;;;12.32;7.80;;;17.50;99.90;;;;;;5017054;28;20071;-88
2022/06/05 07:54:27;;;;;;;10.82;6.93;;;17.60;99.90;;;;;;5033570;28;20045;-88
2022/06/05 07:57:12;;;;;;;12.68;7.25;;;17.70;99.90;;;;;;5033325;28;20041;-87
2022/06/05 07:59:40;;;;;;;11.43;7.60;;;17.70;99.90;;;;;;5033501;28;20068;-90
2022/06/05 08:02:11;;;;;;;10.57;6.53;;;17.70;99.90;;;;;;5016881;28;20045;-88
2022/06/05 08:04:38;;;;;;;9.43;7.07;;;17.70;99.90;;;;;;5017061;28;20041;-88
2022/06/05 08:07:06;;;;;;;10.77;7.00;;;17.80;99.90;;;;;;5033956;28;20432;-88
2022/06/05 08:09:38;;;;;;;14.38;6.78;;;17.90;99.90;;;;;;5016790;28;20041;-88
2022/06/05 08:12:06;;;;;;;10.07;6.53;;;17.90;99.90;;;;;;5017084;28;20053;-86
2022/06/05 08:14:34;;;;;;;10.20;6.93;;;18.00;99.90;;;;;;5032997;28;20049;-88
2022/06/05 08:17:00;;;;;;;10.23;7.10;;;18.10;99.90;;;;;;5016866;28;20037;-89
2022/06/05 08:19:26;;;;;;;12.10;6.70;;;18.20;99.90;;;;;;5017003;28;20489;-88
2022/06/05 08:21:52;;;;;;;9.35;6.25;;;18.20;99.90;;;;;;5016679;28;20050;-88
2022/06/05 08:24:21;;;;;;;7.25;5.97;;;18.40;99.90;;;;;;5032877;28;20048;-88
2022/06/05 08:26:48;;;;;;;10.55;6.70;;;18.60;99.90;;;;;;5016313;28;20057;-88
2022/06/05 08:29:13;;;;;;;10.55;6.63;;;18.70;99.90;;;;;;5016826;28;20056;-88
2022/06/05 08:31:39;;;;;;;9.25;6.65;;;18.80;99.90;;;;;;5016661;28;20136;-88
2022/06/05 08:34:06;;;;;;;14.25;6.88;;;19.00;99.90;;;;;;5016280;28;20048;-87
2022/06/05 08:36:33;;;;;;;9.00;6.60;;;19.00;99.90;;;;;;5032924;28;20492;-88
2022/06/05 08:42:02;;;;;;;8.00;6.00;;;19.30;99.90;;;;;;4957015;28;20046;-87
2022/06/05 08:44:40;;;;;;;9.43;6.40;;;19.40;99.90;;;;;;4973654;28;20089;-88
2022/06/05 08:47:21;;;;;;;8.60;6.10;;;19.50;99.90;;;;;;4956711;28;20364;-88
2022/06/05 08:49:59;;;;;;;9.52;6.57;;;19.50;99.90;;;;;;4956715;28;20573;-88
2022/06/05 08:52:48;;;;;;;9.00;6.13;;;19.50;99.90;;;;;;4956930;28;20051;-88
2022/06/05 08:55:30;;;;;;;9.38;5.88;;;19.70;99.90;;;;;;4956872;28;20046;-88
2022/06/05 08:58:05;;;;;;;9.75;5.88;;;19.80;99.90;;;;;;4956906;28;20078;-88
2022/06/05 09:00:48;;;;;;;8.88;6.18;;;19.90;99.90;;;;;;4973223;28;20062;-88
2022/06/05 09:03:23;;;;;;;8.95;5.88;;;19.90;99.90;;;;;;4956408;28;20526;-88
2022/06/05 09:05:57;;;;;;;8.38;5.50;;;20.10;99.90;;;;;;4941168;28;20057;-88
2022/06/05 09:08:42;;;;;;;10.75;6.10;;;20.30;99.90;;;;;;4956330;28;20051;-88
2022/06/05 09:11:24;;;;;;;8.18;5.88;;;20.50;99.90;;;;;;4956448;28;20090;-88
2022/06/05 09:14:34;;;;;;;10.45;5.80;;;20.50;99.90;;;;;;4957279;28;20051;-88
2022/06/05 09:17:10;;;;;;;9.85;6.15;;;20.60;99.90;;;;;;4941969;28;20150;-88
2022/06/05 09:19:36;;;;;;;7.93;6.00;;;20.60;99.90;;;;;;5001434;28;20133;-88
2022/06/05 09:22:38;;;;;;;11.52;6.18;;;20.60;99.90;;;;;;5016121;28;20049;-88
2022/06/05 09:25:22;;;;;;;8.15;6.15;;;20.60;99.90;;;;;;5016171;28;20140;-87
2022/06/05 09:27:57;;;;;;;8.10;6.00;;;20.50;99.90;;;;;;5016080;28;20443;-88
2022/06/05 09:30:23;;;;;;;;;;;20.60;99.90;;;;;;5016373;28;20099;-88
2022/06/05 09:33:25;;;;;;;8.98;5.80;;;20.60;99.90;;;;;;5032935;28;19921;-86
2022/06/05 09:35:56;;;;;;;9.05;6.20;;;20.80;99.90;;;;;;5032290;28;20038;-88
2022/06/05 09:38:29;;;;;;;8.48;5.90;;;20.70;99.90;;;;;;5015983;28;20084;-87
2022/06/05 09:41:09;;;;;;;7.55;5.70;;;20.80;99.90;;;;;;5019312;28;20057;-87
2022/06/05 09:43:54;;;;;;;8.07;5.80;;;20.80;99.90;;;;;;5036481;28;20041;-89
2022/06/05 09:46:43;;;;;;;8.45;5.70;;;20.90;99.90;;;;;;5020224;28;20092;-88
2022/06/05 09:49:22;;;;;;;7.43;5.68;;;21.10;99.90;;;;;;5020256;28;20048;-88
2022/06/05 09:51:48;;;;;;;6.10;5.32;;;21.20;99.90;;;;;;5037137;28;20056;-88
2022/06/05 09:54:30;;;;;;;8.40;6.03;;;21.20;99.90;;;;;;5022761;28;20041;-88
2022/06/05 10:00:28;;;;;;;8.35;6.00;;;21.40;99.90;;;;;;5035745;28;20393;-90
2022/06/05 10:03:00;;;;;;;9.32;6.32;;;21.30;99.90;;;;;;5024297;28;20049;-88
2022/06/05 10:05:31;;;;;;;6.10;5.47;;;21.30;99.90;;;;;;5019921;28;20041;-88
2022/06/05 10:08:20;;;;;;;7.55;5.30;;;21.30;99.90;;;;;;5035791;28;20052;-88
2022/06/05 10:10:48;;;;;;;8.30;5.88;;;21.30;99.90;;;;;;5020265;28;20056;-88
2022/06/05 10:13:20;;;;;;;8.77;6.22;;;21.20;99.90;;;;;;5020139;28;20072;-87
2022/06/05 10:16:28;;;;;;;7.38;5.60;;;21.20;99.90;;;;;;5035384;28;20041;-89
2022/06/05 10:19:10;;;;;;;8.45;5.95;;;21.10;99.90;;;;;;5019176;28;20056;-88
2022/06/05 10:21:41;;;;;;;8.07;6.05;;;21.20;99.90;;;;;;5019708;28;20057;-88
2022/06/05 10:24:34;;;;;;;7.55;5.70;;;21.10;99.90;;;;;;5019605;28;20476;-89
2022/06/05 10:27:02;;;;;;;8.60;6.38;;;21.20;99.90;;;;;;4981623;28;20093;-88
2022/06/05 10:29:37;;;;;;;7.72;5.60;;;21.20;99.90;;;;;;4963569;28;20054;-87
2022/06/05 10:32:06;;;;;;;8.43;5.90;;;21.20;99.90;;;;;;4979069;28;20054;-89
2022/06/05 10:34:32;;;;;;;10.57;6.28;;;21.40;99.90;;;;;;4965727;28;20589;-88
2022/06/05 10:37:10;;;;;;;7.28;6.00;;;21.40;99.90;;;;;;4966052;28;20050;-88
2022/06/05 10:40:23;;;;;;;8.65;5.65;;;21.40;99.90;;;;;;4964448;28;20157;-88
2022/06/05 10:42:59;;;;;;;8.27;5.82;;;21.50;99.90;;;;;;4965981;28;20047;-88
2022/06/05 10:45:48;;;;;;;7.30;5.95;;;21.50;99.90;;;;;;4964679;28;20077;-86
2022/06/05 10:48:26;;;;;;;6.78;5.35;;;21.60;99.90;;;;;;4964004;28;20046;-88
2022/06/05 10:51:03;;;;;;;8.43;5.65;;;21.70;99.90;;;;;;4963499;28;20141;-89
2022/06/05 10:53:59;;;;;;;6.63;5.60;;;21.80;99.90;;;;;;4963987;28;20569;-88
2022/06/05 10:56:44;;;;;;;7.07;5.47;;;21.80;99.90;;;;;;4963447;28;20038;-88
2022/06/05 10:59:31;;;;;;;6.93;5.40;;;21.80;99.90;;;;;;4963534;28;20050;-88
2022/06/05 11:02:29;;;;;;;5.90;5.20;;;21.90;99.90;;;;;;4962662;28;20046;-88
2022/06/05 11:05:29;;;;;;;8.02;5.80;;;22.00;99.90;;;;;;5012364;28;20060;-89
2022/06/05 11:08:36;;;;;;;8.00;5.38;;;22.00;99.90;;;;;;5017581;28;20052;-89
2022/06/05 11:14:08;;;;;;;7.43;4.93;;;22.00;99.90;;;;;;5034320;28;20054;-88
2022/06/05 11:16:54;;;;;;;6.70;5.43;;;22.10;99.90;;;;;;5018045;28;20045;-89
2022/06/05 11:19:59;;;;;;;7.43;5.15;;;22.00;99.90;;;;;;5017406;28;20053;-89
2022/06/05 11:22:26;;;;;;;6.38;4.90;;;22.00;99.90;;;;;;5018335;28;20140;-90
2022/06/05 11:25:14;;;;;;;7.05;5.10;;;21.90;99.90;;;;;;5019085;28;20119;-88
2022/06/05 11:27:45;;;;;;;6.25;5.10;;;21.90;99.90;;;;;;5019009;28;20385;-88
2022/06/05 11:30:14;;;;;;;8.00;5.20;;;21.90;99.90;;;;;;5017844;28;20080;-87
2022/06/05 11:32:52;;;;;;;5.93;5.20;;;21.90;99.90;;;;;;5018630;28;20041;-87
2022/06/05 11:35:33;;;;;;;6.53;5.10;;;21.90;99.90;;;;;;5018571;28;20045;-88
2022/06/05 11:38:17;;;;;;;7.85;4.88;;;21.90;99.90;;;;;;5018553;28;20048;-89
2022/06/05 11:41:06;;;;;;;6.50;5.03;;;21.90;99.90;;;;;;5035103;28;20103;-87
2022/06/05 11:43:38;;;;;;;7.18;5.35;;;22.00;99.90;;;;;;5018335;28;20045;-87
2022/06/05 11:46:20;;;;;;;7.28;5.28;;;21.90;99.90;;;;;;5017846;28;20461;-88
2022/06/05 11:48:52;;;;;;;7.38;5.68;;;21.90;99.90;;;;;;5017675;28;20072;-87
2022/06/05 11:51:30;;;;;;;6.38;5.00;;;21.90;99.90;;;;;;5017218;28;20091;-89
2022/06/05 11:54:10;;;;;;;8.32;5.28;;;22.00;99.90;;;;;;5033972;28;20124;-89
2022/06/05 11:56:56;;;;;;;7.63;5.53;;;22.00;99.90;;;;;;5017674;28;20048;-89
2022/06/05 11:59:32;;;;;;;6.95;5.20;;;22.10;99.90;;;;;;5017445;28;20096;-88
2022/06/05 12:02:08;;;;;;;7.20;5.70;;;22.10;99.90;;;;;;5016297;28;20481;-88
2022/06/05 12:05:05;;;;;;;7.13;5.35;;;22.10;99.90;;;;;;5017044;28;20081;-88
2022/06/05 12:07:32;;;;;;;7.38;5.03;;;22.00;99.90;;;;;;5016804;28;20050;-89
2022/06/05 12:10:21;;;;;;;7.68;5.57;;;21.90;99.90;;;;;;5016914;28;20050;-89
2022/06/05 12:13:06;;;;;;;6.40;5.22;;;22.00;99.90;;;;;;5033093;28;20512;-89
2022/06/05 12:16:15;;;;;;;7.80;5.50;;;22.00;99.90;;;;;;5029042;28;20030;-88
2022/06/05 12:18:56;;;;;;;7.97;5.80;;;22.00;99.90;;;;;;5008949;28;20052;-89
2022/06/05 12:21:33;;;;;;;7.43;5.72;;;22.00;99.90;;;;;;5016889;28;20049;-89
2022/06/05 12:24:08;;;;;;;7.85;5.70;;;22.00;99.90;;;;;;5033279;28;20063;-89
2022/06/05 12:26:53;;;;;;;6.28;5.60;;;22.00;99.90;;;;;;5017599;28;20045;-88
2022/06/05 12:29:37;;;;;;;7.20;5.60;;;22.00;99.90;;;;;;5016780;28;20052;-88
2022/06/05 12:32:14;;;;;;;7.93;5.93;;;22.00;99.90;;;;;;5033386;28;20139;-87
2022/06/05 12:34:45;;;;;;;7.70;5.88;;;22.10;99.90;;;;;;5016648;28;20090;-88
2022/06/05 12:37:28;;;;;;;6.60;5.45;;;22.10;99.90;;;;;;5033435;28;20057;-88
2022/06/05 12:39:57;;;;;;;6.65;5.30;;;22.10;99.90;;;;;;5016636;28;20056;-88
2022/06/05 12:42:37;;;;;;;7.50;5.80;;;22.00;99.90;;;;;;5016418;28;20041;-88
2022/06/05 12:45:26;;;;;;;8.48;5.65;;;22.00;99.90;;;;;;5016573;28;20505;-88
2022/06/05 12:48:09;;;;;;;6.47;5.75;;;22.10;99.90;;;;;;5017971;28;20064;-88
2022/06/05 12:51:03;;;;;;;7.38;5.63;;;22.10;99.90;;;;;;5020600;28;20049;-88
2022/06/05 12:53:46;;;;;;;7.93;5.63;;;22.20;99.90;;;;;;5019749;28;20080;-89
2022/06/05 12:56:43;;;;;;;6.20;5.50;;;22.20;99.90;;;;;;5020257;28;20049;-88
2022/06/05 12:59:44;;;;;;;6.68;5.50;;;22.40;99.90;;;;;;5022505;28;20041;-88
2022/06/05 13:02:21;;;;;;;7.38;5.65;;;22.50;99.90;;;;;;5020916;28;20041;-88
2022/06/05 13:05:15;;;;;;;7.82;5.97;;;22.60;99.90;;;;;;5039310;28;20049;-88
2022/06/05 13:08:15;;;;;;;7.57;5.60;;;22.70;99.90;;;;;;5020494;28;20107;-88
2022/06/05 13:11:03;;;;;;;7.38;5.90;;;22.70;99.90;;;;;;5021491;28;20481;-87
2022/06/05 13:13:50;;;;;;;8.15;5.90;;;22.70;99.90;;;;;;5023473;28;20049;-89
2022/06/05 13:16:35;;;;;;;8.18;6.15;;;22.80;99.90;;;;;;5025729;28;20191;-88
2022/06/05 13:19:00;;;;;;;7.10;6.40;;;22.90;99.90;;;;;;5026179;28;20078;-88
2022/06/05 13:21:40;;;;;;;6.85;5.97;;;22.80;99.90;;;;;;5025830;28;20054;-88
2022/06/05 13:24:32;;;;;;;9.00;6.68;;;22.80;99.90;;;;;;5040574;28;20056;-88
2022/06/05 13:27:23;;;;;;;6.93;6.20;;;22.80;99.90;;;;;;5025892;28;20052;-88
2022/06/05 13:30:19;;;;;;;7.55;6.32;;;22.70;99.90;;;;;;5023926;28;20045;-88
2022/06/05 13:32:53;;;;;;;7.85;6.45;;;22.60;99.90;;;;;;5042508;28;20041;-88
2022/06/05 13:35:36;;;;;;;10.70;6.68;;;22.60;99.90;;;;;;5025162;28;20038;-88